Alev Kaman — TCCN5 — position and weather

sailwx.info

Track history (hours):
 
Tides and Currents Weather Stations Pressure Air Temp Water Temp Dewpoint Dewpoint Depression Visibility Wind Speed Wind Dir Waves Ship Positions

Alev Kaman

Last reported at 2017-Jul-11 06:09 UTC. Time now 2017-Jul-26 18:43 UTC.
Position N 40°45' E 029°30'.
Warning: this ship's position is 15 days out of date.

Length 93 m; draft 5.2 m.

Type: Ship (hazmat cat C). MMSI: 271000716.

Date/timePositionNaut miles runAvg speedWind from/ knotsBaromVisibWave heightAir tempDewpointWater temp
2017-Jul-11 06:09N 40°45' E 029°30'2 9.8
2017-Jul-11 06:00N 40°44' E 029°29'5 9.6
2017-Jul-11 05:30N 40°43' E 029°22'4 7.0
2017-Jul-11 05:00N 40°44' E 029°18'5 9.8
2017-Jul-11 04:30N 40°47' E 029°13'5 9.7
2017-Jul-11 03:59N 40°48' E 029°06'5 9.9
2017-Jul-11 03:30N 40°50' E 029°00'5 9.5
2017-Jul-11 02:58N 40°54' E 028°56'510.3
2017-Jul-11 02:30N 40°58' E 028°59'  
2017-Jul-01 18:06N 41°17' E 028°59'  
Track history (hours):
 
Tides and Currents Weather Stations Pressure Air Temp Water Temp Dewpoint Dewpoint Depression Visibility Wind Speed Wind Dir Waves Ship Positions

Alev Kaman

Last reported at 2017-Jul-11 06:09 UTC. Time now 2017-Jul-26 18:43 UTC.
Position N 40°45' E 029°30'.
Warning: this ship's position is 15 days out of date.

Length 93 m; draft 5.2 m.

Type: Ship (hazmat cat C). MMSI: 271000716.

Date/timePositionNaut miles runAvg speedWind from/ knotsBaromVisibWave heightAir tempDewpointWater temp
2017-Jul-11 06:09N 40°45' E 029°30'2 9.8
2017-Jul-11 06:00N 40°44' E 029°29'5 9.6
2017-Jul-11 05:30N 40°43' E 029°22'4 7.0
2017-Jul-11 05:00N 40°44' E 029°18'5 9.8
2017-Jul-11 04:30N 40°47' E 029°13'5 9.7
2017-Jul-11 03:59N 40°48' E 029°06'5 9.9
2017-Jul-11 03:30N 40°50' E 029°00'5 9.5
2017-Jul-11 02:58N 40°54' E 028°56'510.3
2017-Jul-11 02:30N 40°58' E 028°59'  
2017-Jul-01 18:06N 41°17' E 028°59'  

Dump ship's entire track history